logo
Search for airport 
image banner adimage banner adimage banner ad
image banner ad

SHLP - Los Portones

Located in Lo Barnechea, Chile

ICAO - SHLP, IATA -

Data provided by Airmate  

General information

Coordinates: S33°21'34" W70°31'33"
Elevation is 9080 feet MSL.
 
View others Airports in Santiago Metropolitan Region

Operational data

Special qualification required
Current time UTC:
Current local time:
Weather at : SCTB - Eulogio Sanchez - Tobalaba ( 11 km )
METAR: SCTB 141700Z 23004KT 210V300 CAVOK 18/M03 Q1020
View NOTAMs / SUP AIP / TFR affecting this airport [VIEW]
Communications frequencies: [VIEW]

Runways:

Airport contact information

Address: Lo Barnechea Chile

Satellite view of SHLP